sensor_id;sensor_type;location;lat;lon;timestamp;P1;durP1;ratioP1;P2;durP2;ratioP2
21239;SDS011;10778;48.962;9.018;2023-12-28T00:01:22;20.48;;;10.52;;
21239;SDS011;10778;48.962;9.018;2023-12-28T00:03:49;20.10;;;10.35;;
21239;SDS011;10778;48.962;9.018;2023-12-28T00:06:15;22.92;;;11.10;;
21239;SDS011;10778;48.962;9.018;2023-12-28T00:08:42;23.63;;;12.18;;
21239;SDS011;10778;48.962;9.018;2023-12-28T00:11:08;20.98;;;11.68;;
21239;SDS011;10778;48.962;9.018;2023-12-28T00:13:34;27.00;;;13.57;;
21239;SDS011;10778;48.962;9.018;2023-12-28T00:16:00;30.67;;;16.10;;
21239;SDS011;10778;48.962;9.018;2023-12-28T00:18:26;24.80;;;14.20;;
21239;SDS011;10778;48.962;9.018;2023-12-28T00:20:54;20.70;;;11.57;;
21239;SDS011;10778;48.962;9.018;2023-12-28T00:23:20;21.90;;;11.88;;
21239;SDS011;10778;48.962;9.018;2023-12-28T00:25:46;26.13;;;14.40;;
21239;SDS011;10778;48.962;9.018;2023-12-28T00:28:12;27.17;;;15.18;;
21239;SDS011;10778;48.962;9.018;2023-12-28T00:30:38;27.10;;;15.38;;
21239;SDS011;10778;48.962;9.018;2023-12-28T00:33:04;24.52;;;14.00;;
21239;SDS011;10778;48.962;9.018;2023-12-28T00:35:32;18.55;;;10.32;;
21239;SDS011;10778;48.962;9.018;2023-12-28T00:37:58;12.90;;;7.72;;
21239;SDS011;10778;48.962;9.018;2023-12-28T00:40:24;11.30;;;7.20;;
21239;SDS011;10778;48.962;9.018;2023-12-28T00:42:50;12.32;;;7.72;;
21239;SDS011;10778;48.962;9.018;2023-12-28T00:45:16;14.02;;;7.63;;
21239;SDS011;10778;48.962;9.018;2023-12-28T00:47:42;13.18;;;6.93;;
21239;SDS011;10778;48.962;9.018;2023-12-28T00:50:09;10.23;;;6.53;;
21239;SDS011;10778;48.962;9.018;2023-12-28T00:52:40;10.95;;;6.43;;
21239;SDS011;10778;48.962;9.018;2023-12-28T00:55:07;11.38;;;6.60;;
21239;SDS011;10778;48.962;9.018;2023-12-28T00:57:33;10.68;;;6.35;;
21239;SDS011;10778;48.962;9.018;2023-12-28T01:00:00;11.27;;;7.03;;
21239;SDS011;10778;48.962;9.018;2023-12-28T01:02:27;14.25;;;8.77;;
21239;SDS011;10778;48.962;9.018;2023-12-28T01:04:53;13.13;;;8.15;;
21239;SDS011;10778;48.962;9.018;2023-12-28T01:07:19;10.90;;;6.95;;
21239;SDS011;10778;48.962;9.018;2023-12-28T01:09:45;10.82;;;6.25;;
21239;SDS011;10778;48.962;9.018;2023-12-28T01:12:11;14.25;;;7.57;;
21239;SDS011;10778;48.962;9.018;2023-12-28T01:14:37;12.52;;;7.63;;
21239;SDS011;10778;48.962;9.018;2023-12-28T01:17:03;14.23;;;7.95;;
21239;SDS011;10778;48.962;9.018;2023-12-28T01:19:29;15.52;;;8.70;;
21239;SDS011;10778;48.962;9.018;2023-12-28T01:21:55;18.05;;;9.32;;
21239;SDS011;10778;48.962;9.018;2023-12-28T01:24:21;13.30;;;8.00;;
21239;SDS011;10778;48.962;9.018;2023-12-28T01:26:47;15.60;;;8.55;;
21239;SDS011;10778;48.962;9.018;2023-12-28T01:29:13;13.45;;;7.93;;
21239;SDS011;10778;48.962;9.018;2023-12-28T01:31:39;13.90;;;8.73;;
21239;SDS011;10778;48.962;9.018;2023-12-28T01:34:05;14.23;;;8.20;;
21239;SDS011;10778;48.962;9.018;2023-12-28T01:36:33;13.57;;;8.82;;
21239;SDS011;10778;48.962;9.018;2023-12-28T01:38:59;12.23;;;7.82;;
21239;SDS011;10778;48.962;9.018;2023-12-28T01:41:25;15.77;;;9.10;;
21239;SDS011;10778;48.962;9.018;2023-12-28T01:43:52;15.82;;;9.05;;
21239;SDS011;10778;48.962;9.018;2023-12-28T01:46:18;13.85;;;8.70;;
21239;SDS011;10778;48.962;9.018;2023-12-28T01:48:49;14.27;;;8.65;;
21239;SDS011;10778;48.962;9.018;2023-12-28T01:51:16;15.27;;;8.63;;
21239;SDS011;10778;48.962;9.018;2023-12-28T01:53:43;15.60;;;8.35;;
21239;SDS011;10778;48.962;9.018;2023-12-28T01:56:10;12.32;;;8.45;;
21239;SDS011;10778;48.962;9.018;2023-12-28T01:58:37;13.80;;;8.38;;
21239;SDS011;10778;48.962;9.018;2023-12-28T02:01:06;12.95;;;8.20;;
21239;SDS011;10778;48.962;9.018;2023-12-28T02:03:33;14.55;;;8.65;;
21239;SDS011;10778;48.962;9.018;2023-12-28T02:05:59;15.68;;;8.88;;
21239;SDS011;10778;48.962;9.018;2023-12-28T02:08:27;14.77;;;8.65;;
21239;SDS011;10778;48.962;9.018;2023-12-28T02:10:53;14.75;;;8.80;;
21239;SDS011;10778;48.962;9.018;2023-12-28T02:13:21;14.52;;;8.13;;
21239;SDS011;10778;48.962;9.018;2023-12-28T02:15:50;13.85;;;8.40;;
21239;SDS011;10778;48.962;9.018;2023-12-28T02:18:21;16.88;;;8.73;;
21239;SDS011;10778;48.962;9.018;2023-12-28T02:20:53;13.95;;;7.90;;
21239;SDS011;10778;48.962;9.018;2023-12-28T02:23:19;14.07;;;8.70;;
21239;SDS011;10778;48.962;9.018;2023-12-28T02:25:45;13.43;;;8.25;;
21239;SDS011;10778;48.962;9.018;2023-12-28T02:28:11;12.55;;;8.10;;
21239;SDS011;10778;48.962;9.018;2023-12-28T02:30:37;11.88;;;7.60;;
21239;SDS011;10778;48.962;9.018;2023-12-28T02:33:11;12.80;;;8.02;;
21239;SDS011;10778;48.962;9.018;2023-12-28T02:35:42;11.75;;;7.05;;
21239;SDS011;10778;48.962;9.018;2023-12-28T02:38:10;14.35;;;7.57;;
21239;SDS011;10778;48.962;9.018;2023-12-28T02:40:39;13.18;;;7.95;;
21239;SDS011;10778;48.962;9.018;2023-12-28T02:43:07;12.52;;;7.70;;
21239;SDS011;10778;48.962;9.018;2023-12-28T02:45:35;13.38;;;7.65;;
21239;SDS011;10778;48.962;9.018;2023-12-28T02:48:02;12.85;;;8.10;;
21239;SDS011;10778;48.962;9.018;2023-12-28T02:50:29;12.73;;;7.68;;
21239;SDS011;10778;48.962;9.018;2023-12-28T02:52:58;11.35;;;7.10;;
21239;SDS011;10778;48.962;9.018;2023-12-28T02:55:24;12.35;;;7.20;;
21239;SDS011;10778;48.962;9.018;2023-12-28T02:57:51;12.07;;;7.22;;
21239;SDS011;10778;48.962;9.018;2023-12-28T03:00:21;12.45;;;7.20;;
21239;SDS011;10778;48.962;9.018;2023-12-28T03:02:47;12.98;;;7.32;;
21239;SDS011;10778;48.962;9.018;2023-12-28T03:05:13;10.70;;;6.80;;
21239;SDS011;10778;48.962;9.018;2023-12-28T03:07:39;12.18;;;7.32;;
21239;SDS011;10778;48.962;9.018;2023-12-28T03:10:06;11.98;;;7.32;;
21239;SDS011;10778;48.962;9.018;2023-12-28T03:12:33;13.00;;;7.10;;
21239;SDS011;10778;48.962;9.018;2023-12-28T03:14:59;11.95;;;7.43;;
21239;SDS011;10778;48.962;9.018;2023-12-28T03:17:25;10.68;;;7.03;;
21239;SDS011;10778;48.962;9.018;2023-12-28T03:19:51;12.63;;;6.97;;
21239;SDS011;10778;48.962;9.018;2023-12-28T03:22:17;12.20;;;7.40;;
21239;SDS011;10778;48.962;9.018;2023-12-28T03:24:46;11.43;;;6.93;;
21239;SDS011;10778;48.962;9.018;2023-12-28T03:27:12;12.40;;;7.53;;
21239;SDS011;10778;48.962;9.018;2023-12-28T03:29:38;12.55;;;7.40;;
21239;SDS011;10778;48.962;9.018;2023-12-28T03:32:07;11.68;;;7.47;;
21239;SDS011;10778;48.962;9.018;2023-12-28T03:34:33;11.25;;;7.55;;
21239;SDS011;10778;48.962;9.018;2023-12-28T03:37:00;14.48;;;7.88;;
21239;SDS011;10778;48.962;9.018;2023-12-28T03:39:26;13.07;;;8.27;;
21239;SDS011;10778;48.962;9.018;2023-12-28T03:41:54;13.52;;;8.60;;
21239;SDS011;10778;48.962;9.018;2023-12-28T03:44:20;16.65;;;9.05;;
21239;SDS011;10778;48.962;9.018;2023-12-28T03:46:47;15.05;;;9.00;;
21239;SDS011;10778;48.962;9.018;2023-12-28T03:49:17;13.20;;;8.20;;
21239;SDS011;10778;48.962;9.018;2023-12-28T03:51:49;17.05;;;9.23;;
21239;SDS011;10778;48.962;9.018;2023-12-28T03:54:16;27.33;;;12.32;;
21239;SDS011;10778;48.962;9.018;2023-12-28T03:56:42;30.52;;;14.38;;
21239;SDS011;10778;48.962;9.018;2023-12-28T03:59:09;35.58;;;15.68;;
21239;SDS011;10778;48.962;9.018;2023-12-28T04:01:35;26.92;;;12.95;;
21239;SDS011;10778;48.962;9.018;2023-12-28T04:04:01;32.85;;;15.30;;
21239;SDS011;10778;48.962;9.018;2023-12-28T04:06:27;25.20;;;12.20;;
21239;SDS011;10778;48.962;9.018;2023-12-28T04:08:54;18.70;;;9.77;;
21239;SDS011;10778;48.962;9.018;2023-12-28T04:11:20;15.25;;;9.27;;
21239;SDS011;10778;48.962;9.018;2023-12-28T04:13:46;17.42;;;9.30;;
21239;SDS011;10778;48.962;9.018;2023-12-28T04:16:12;14.40;;;9.05;;
21239;SDS011;10778;48.962;9.018;2023-12-28T04:18:40;15.30;;;9.18;;
21239;SDS011;10778;48.962;9.018;2023-12-28T04:21:10;15.85;;;9.23;;
21239;SDS011;10778;48.962;9.018;2023-12-28T04:23:37;15.02;;;8.90;;
21239;SDS011;10778;48.962;9.018;2023-12-28T04:26:03;16.52;;;9.02;;
21239;SDS011;10778;48.962;9.018;2023-12-28T04:28:29;14.80;;;8.80;;
21239;SDS011;10778;48.962;9.018;2023-12-28T04:30:56;15.80;;;8.88;;
21239;SDS011;10778;48.962;9.018;2023-12-28T04:33:22;15.60;;;8.98;;
21239;SDS011;10778;48.962;9.018;2023-12-28T04:35:48;14.57;;;8.95;;
21239;SDS011;10778;48.962;9.018;2023-12-28T04:38:14;13.73;;;9.02;;
21239;SDS011;10778;48.962;9.018;2023-12-28T04:40:40;14.80;;;8.55;;
21239;SDS011;10778;48.962;9.018;2023-12-28T04:43:07;11.80;;;8.05;;
21239;SDS011;10778;48.962;9.018;2023-12-28T04:45:34;12.60;;;7.78;;
21239;SDS011;10778;48.962;9.018;2023-12-28T04:48:00;13.93;;;7.97;;
21239;SDS011;10778;48.962;9.018;2023-12-28T04:50:26;13.77;;;8.05;;
21239;SDS011;10778;48.962;9.018;2023-12-28T04:52:52;12.32;;;8.15;;
21239;SDS011;10778;48.962;9.018;2023-12-28T04:55:18;15.60;;;8.50;;
21239;SDS011;10778;48.962;9.018;2023-12-28T04:57:44;13.38;;;8.23;;
21239;SDS011;10778;48.962;9.018;2023-12-28T05:00:10;11.95;;;8.35;;
21239;SDS011;10778;48.962;9.018;2023-12-28T05:02:36;14.63;;;8.40;;
21239;SDS011;10778;48.962;9.018;2023-12-28T05:05:02;13.52;;;8.70;;
21239;SDS011;10778;48.962;9.018;2023-12-28T05:07:28;12.70;;;8.27;;
21239;SDS011;10778;48.962;9.018;2023-12-28T05:09:54;14.30;;;8.88;;
21239;SDS011;10778;48.962;9.018;2023-12-28T05:12:20;14.02;;;8.45;;
21239;SDS011;10778;48.962;9.018;2023-12-28T05:14:46;13.10;;;7.97;;
21239;SDS011;10778;48.962;9.018;2023-12-28T05:17:12;11.10;;;6.60;;
21239;SDS011;10778;48.962;9.018;2023-12-28T05:19:38;13.90;;;7.35;;
21239;SDS011;10778;48.962;9.018;2023-12-28T05:22:04;11.05;;;6.20;;
21239;SDS011;10778;48.962;9.018;2023-12-28T05:24:32;10.90;;;6.40;;
21239;SDS011;10778;48.962;9.018;2023-12-28T05:26:58;9.60;;;6.82;;
21239;SDS011;10778;48.962;9.018;2023-12-28T05:29:24;6.03;;;3.95;;
21239;SDS011;10778;48.962;9.018;2023-12-28T05:31:50;4.35;;;2.22;;
21239;SDS011;10778;48.962;9.018;2023-12-28T05:34:16;2.92;;;1.70;;
21239;SDS011;10778;48.962;9.018;2023-12-28T05:36:42;2.83;;;1.52;;
21239;SDS011;10778;48.962;9.018;2023-12-28T05:39:11;2.63;;;1.50;;
21239;SDS011;10778;48.962;9.018;2023-12-28T05:41:39;4.55;;;1.50;;
21239;SDS011;10778;48.962;9.018;2023-12-28T05:44:06;4.22;;;1.38;;
21239;SDS011;10778;48.962;9.018;2023-12-28T05:46:32;2.15;;;1.55;;
21239;SDS011;10778;48.962;9.018;2023-12-28T05:48:58;2.08;;;1.33;;
21239;SDS011;10778;48.962;9.018;2023-12-28T05:51:24;5.70;;;1.60;;
21239;SDS011;10778;48.962;9.018;2023-12-28T05:53:50;2.58;;;1.38;;
21239;SDS011;10778;48.962;9.018;2023-12-28T05:56:16;3.70;;;1.48;;
21239;SDS011;10778;48.962;9.018;2023-12-28T05:58:43;4.05;;;1.70;;
21239;SDS011;10778;48.962;9.018;2023-12-28T06:01:09;4.22;;;1.90;;
21239;SDS011;10778;48.962;9.018;2023-12-28T06:03:35;5.00;;;2.35;;
21239;SDS011;10778;48.962;9.018;2023-12-28T06:06:01;5.55;;;2.33;;
21239;SDS011;10778;48.962;9.018;2023-12-28T06:08:27;4.50;;;2.13;;
21239;SDS011;10778;48.962;9.018;2023-12-28T06:10:53;4.53;;;2.17;;
21239;SDS011;10778;48.962;9.018;2023-12-28T06:13:19;3.40;;;2.00;;
21239;SDS011;10778;48.962;9.018;2023-12-28T06:15:45;3.20;;;2.00;;
21239;SDS011;10778;48.962;9.018;2023-12-28T06:18:11;3.67;;;2.10;;
21239;SDS011;10778;48.962;9.018;2023-12-28T06:20:37;3.85;;;2.15;;
21239;SDS011;10778;48.962;9.018;2023-12-28T06:23:03;4.65;;;2.20;;
21239;SDS011;10778;48.962;9.018;2023-12-28T06:25:29;6.05;;;3.15;;
21239;SDS011;10778;48.962;9.018;2023-12-28T06:27:55;5.90;;;2.30;;
21239;SDS011;10778;48.962;9.018;2023-12-28T06:30:21;3.50;;;2.38;;
21239;SDS011;10778;48.962;9.018;2023-12-28T06:32:47;2.80;;;1.70;;
21239;SDS011;10778;48.962;9.018;2023-12-28T06:35:13;2.22;;;1.45;;
21239;SDS011;10778;48.962;9.018;2023-12-28T06:37:39;3.30;;;1.40;;
21239;SDS011;10778;48.962;9.018;2023-12-28T06:40:05;4.57;;;1.50;;
21239;SDS011;10778;48.962;9.018;2023-12-28T06:42:31;3.08;;;1.30;;
21239;SDS011;10778;48.962;9.018;2023-12-28T06:44:57;2.20;;;1.50;;
21239;SDS011;10778;48.962;9.018;2023-12-28T06:47:23;3.25;;;1.30;;
21239;SDS011;10778;48.962;9.018;2023-12-28T06:49:49;2.70;;;1.10;;
21239;SDS011;10778;48.962;9.018;2023-12-28T06:52:15;2.90;;;1.27;;
21239;SDS011;10778;48.962;9.018;2023-12-28T06:54:41;2.35;;;1.20;;
21239;SDS011;10778;48.962;9.018;2023-12-28T06:57:07;2.03;;;1.20;;
21239;SDS011;10778;48.962;9.018;2023-12-28T06:59:33;1.73;;;1.10;;
21239;SDS011;10778;48.962;9.018;2023-12-28T07:01:59;3.53;;;1.20;;
21239;SDS011;10778;48.962;9.018;2023-12-28T07:04:25;5.47;;;1.25;;
21239;SDS011;10778;48.962;9.018;2023-12-28T07:06:55;2.70;;;1.40;;
21239;SDS011;10778;48.962;9.018;2023-12-28T07:09:21;2.92;;;1.23;;
21239;SDS011;10778;48.962;9.018;2023-12-28T07:11:47;3.83;;;1.10;;
21239;SDS011;10778;48.962;9.018;2023-12-28T07:14:13;2.72;;;1.30;;
21239;SDS011;10778;48.962;9.018;2023-12-28T07:16:38;3.45;;;1.40;;
21239;SDS011;10778;48.962;9.018;2023-12-28T07:19:04;3.38;;;1.13;;
21239;SDS011;10778;48.962;9.018;2023-12-28T07:21:30;4.22;;;1.20;;
21239;SDS011;10778;48.962;9.018;2023-12-28T07:23:56;4.10;;;1.10;;
21239;SDS011;10778;48.962;9.018;2023-12-28T07:26:22;2.42;;;1.30;;
21239;SDS011;10778;48.962;9.018;2023-12-28T07:28:48;1.85;;;1.27;;
21239;SDS011;10778;48.962;9.018;2023-12-28T07:31:24;3.20;;;1.70;;
21239;SDS011;10778;48.962;9.018;2023-12-28T07:33:51;3.08;;;1.67;;
21239;SDS011;10778;48.962;9.018;2023-12-28T07:36:17;5.47;;;2.80;;
21239;SDS011;10778;48.962;9.018;2023-12-28T07:38:43;5.63;;;2.65;;
21239;SDS011;10778;48.962;9.018;2023-12-28T07:41:09;5.07;;;2.60;;
21239;SDS011;10778;48.962;9.018;2023-12-28T07:43:36;3.35;;;2.00;;
21239;SDS011;10778;48.962;9.018;2023-12-28T07:46:02;3.15;;;1.70;;
21239;SDS011;10778;48.962;9.018;2023-12-28T07:48:28;3.72;;;1.80;;
21239;SDS011;10778;48.962;9.018;2023-12-28T07:51:03;4.07;;;1.60;;
21239;SDS011;10778;48.962;9.018;2023-12-28T07:53:29;2.38;;;1.60;;
21239;SDS011;10778;48.962;9.018;2023-12-28T07:55:55;4.25;;;2.25;;
21239;SDS011;10778;48.962;9.018;2023-12-28T07:58:22;3.78;;;2.50;;
21239;SDS011;10778;48.962;9.018;2023-12-28T08:00:48;6.78;;;3.65;;
21239;SDS011;10778;48.962;9.018;2023-12-28T08:03:14;5.13;;;2.25;;
21239;SDS011;10778;48.962;9.018;2023-12-28T08:05:43;2.92;;;1.95;;
21239;SDS011;10778;48.962;9.018;2023-12-28T08:08:09;2.85;;;2.05;;
21239;SDS011;10778;48.962;9.018;2023-12-28T08:10:35;5.85;;;3.50;;
21239;SDS011;10778;48.962;9.018;2023-12-28T08:13:01;5.47;;;3.40;;
21239;SDS011;10778;48.962;9.018;2023-12-28T08:15:27;6.05;;;2.80;;
21239;SDS011;10778;48.962;9.018;2023-12-28T08:17:53;3.33;;;2.28;;
21239;SDS011;10778;48.962;9.018;2023-12-28T08:20:19;5.28;;;2.47;;
21239;SDS011;10778;48.962;9.018;2023-12-28T08:22:45;4.43;;;3.08;;
21239;SDS011;10778;48.962;9.018;2023-12-28T08:25:11;4.10;;;2.65;;
21239;SDS011;10778;48.962;9.018;2023-12-28T08:27:37;4.20;;;2.50;;
21239;SDS011;10778;48.962;9.018;2023-12-28T08:30:04;3.83;;;1.98;;
21239;SDS011;10778;48.962;9.018;2023-12-28T08:32:30;4.50;;;2.20;;
21239;SDS011;10778;48.962;9.018;2023-12-28T08:34:56;2.85;;;2.15;;
21239;SDS011;10778;48.962;9.018;2023-12-28T08:37:22;5.70;;;2.78;;
21239;SDS011;10778;48.962;9.018;2023-12-28T08:39:48;6.05;;;3.17;;
21239;SDS011;10778;48.962;9.018;2023-12-28T08:42:14;6.53;;;3.20;;
21239;SDS011;10778;48.962;9.018;2023-12-28T08:44:40;4.25;;;2.58;;
21239;SDS011;10778;48.962;9.018;2023-12-28T08:47:06;4.05;;;2.72;;
21239;SDS011;10778;48.962;9.018;2023-12-28T08:49:32;4.53;;;2.70;;
21239;SDS011;10778;48.962;9.018;2023-12-28T08:51:59;8.40;;;5.30;;
21239;SDS011;10778;48.962;9.018;2023-12-28T08:54:25;5.53;;;3.03;;
21239;SDS011;10778;48.962;9.018;2023-12-28T08:56:51;6.25;;;2.38;;
21239;SDS011;10778;48.962;9.018;2023-12-28T08:59:17;4.57;;;2.80;;
21239;SDS011;10778;48.962;9.018;2023-12-28T09:01:43;5.55;;;3.83;;
21239;SDS011;10778;48.962;9.018;2023-12-28T09:04:09;4.60;;;3.00;;
21239;SDS011;10778;48.962;9.018;2023-12-28T09:06:35;6.15;;;2.85;;
21239;SDS011;10778;48.962;9.018;2023-12-28T09:09:01;4.90;;;2.90;;
21239;SDS011;10778;48.962;9.018;2023-12-28T09:11:27;5.10;;;3.08;;
21239;SDS011;10778;48.962;9.018;2023-12-28T09:13:54;4.28;;;2.85;;
21239;SDS011;10778;48.962;9.018;2023-12-28T09:16:20;4.57;;;2.78;;
21239;SDS011;10778;48.962;9.018;2023-12-28T09:18:46;5.72;;;3.08;;
21239;SDS011;10778;48.962;9.018;2023-12-28T09:21:12;5.25;;;3.20;;
21239;SDS011;10778;48.962;9.018;2023-12-28T09:23:38;5.25;;;3.30;;
21239;SDS011;10778;48.962;9.018;2023-12-28T09:26:06;6.30;;;2.85;;
21239;SDS011;10778;48.962;9.018;2023-12-28T09:28:32;6.53;;;2.97;;
21239;SDS011;10778;48.962;9.018;2023-12-28T09:31:00;4.15;;;3.28;;
21239;SDS011;10778;48.962;9.018;2023-12-28T09:33:26;4.82;;;2.90;;
21239;SDS011;10778;48.962;9.018;2023-12-28T09:35:52;5.30;;;2.58;;
21239;SDS011;10778;48.962;9.018;2023-12-28T09:38:19;5.50;;;2.50;;
21239;SDS011;10778;48.962;9.018;2023-12-28T09:40:45;4.57;;;2.70;;
21239;SDS011;10778;48.962;9.018;2023-12-28T09:45:51;7.10;;;3.45;;
21239;SDS011;10778;48.962;9.018;2023-12-28T09:48:17;7.25;;;3.80;;
21239;SDS011;10778;48.962;9.018;2023-12-28T09:50:45;7.55;;;4.00;;
21239;SDS011;10778;48.962;9.018;2023-12-28T09:53:14;7.63;;;4.10;;
21239;SDS011;10778;48.962;9.018;2023-12-28T09:55:40;7.55;;;3.80;;
21239;SDS011;10778;48.962;9.018;2023-12-28T09:58:06;5.82;;;3.50;;
21239;SDS011;10778;48.962;9.018;2023-12-28T10:00:32;7.47;;;3.60;;
21239;SDS011;10778;48.962;9.018;2023-12-28T10:02:58;4.82;;;2.75;;
21239;SDS011;10778;48.962;9.018;2023-12-28T10:05:24;5.10;;;2.85;;
21239;SDS011;10778;48.962;9.018;2023-12-28T10:07:50;4.20;;;2.78;;
21239;SDS011;10778;48.962;9.018;2023-12-28T10:10:16;3.95;;;2.88;;
21239;SDS011;10778;48.962;9.018;2023-12-28T10:12:43;5.05;;;2.90;;
21239;SDS011;10778;48.962;9.018;2023-12-28T10:15:09;4.22;;;2.80;;
21239;SDS011;10778;48.962;9.018;2023-12-28T10:17:35;4.45;;;3.20;;
21239;SDS011;10778;48.962;9.018;2023-12-28T10:20:02;4.97;;;3.47;;
21239;SDS011;10778;48.962;9.018;2023-12-28T10:22:34;5.65;;;3.45;;
21239;SDS011;10778;48.962;9.018;2023-12-28T10:25:02;5.00;;;3.58;;
21239;SDS011;10778;48.962;9.018;2023-12-28T10:27:29;5.85;;;3.38;;
21239;SDS011;10778;48.962;9.018;2023-12-28T10:33:42;5.13;;;3.47;;
21239;SDS011;10778;48.962;9.018;2023-12-28T10:36:12;5.10;;;3.10;;
21239;SDS011;10778;48.962;9.018;2023-12-28T10:38:40;4.18;;;2.92;;
21239;SDS011;10778;48.962;9.018;2023-12-28T10:41:09;5.88;;;2.90;;
21239;SDS011;10778;48.962;9.018;2023-12-28T10:44:01;5.22;;;3.20;;
21239;SDS011;10778;48.962;9.018;2023-12-28T10:46:30;4.65;;;2.95;;
21239;SDS011;10778;48.962;9.018;2023-12-28T10:49:05;5.40;;;3.00;;
21239;SDS011;10778;48.962;9.018;2023-12-28T10:51:40;5.07;;;2.92;;
21239;SDS011;10778;48.962;9.018;2023-12-28T10:57:17;4.07;;;2.88;;
21239;SDS011;10778;48.962;9.018;2023-12-28T11:02:22;4.57;;;2.97;;
21239;SDS011;10778;48.962;9.018;2023-12-28T11:04:54;5.00;;;3.10;;
21239;SDS011;10778;48.962;9.018;2023-12-28T11:07:21;4.63;;;3.38;;
21239;SDS011;10778;48.962;9.018;2023-12-28T11:09:47;4.78;;;3.55;;
21239;SDS011;10778;48.962;9.018;2023-12-28T11:12:15;6.50;;;4.07;;
21239;SDS011;10778;48.962;9.018;2023-12-28T11:14:43;10.10;;;3.47;;
21239;SDS011;10778;48.962;9.018;2023-12-28T11:17:10;4.25;;;3.22;;
21239;SDS011;10778;48.962;9.018;2023-12-28T11:19:37;4.75;;;3.35;;
21239;SDS011;10778;48.962;9.018;2023-12-28T11:22:04;7.13;;;3.67;;
21239;SDS011;10778;48.962;9.018;2023-12-28T11:24:31;4.65;;;3.58;;
21239;SDS011;10778;48.962;9.018;2023-12-28T11:26:58;7.50;;;4.47;;
21239;SDS011;10778;48.962;9.018;2023-12-28T11:29:24;8.35;;;6.03;;
21239;SDS011;10778;48.962;9.018;2023-12-28T11:31:54;7.65;;;5.78;;
21239;SDS011;10778;48.962;9.018;2023-12-28T11:34:25;11.80;;;8.43;;
21239;SDS011;10778;48.962;9.018;2023-12-28T11:36:54;14.63;;;9.35;;
21239;SDS011;10778;48.962;9.018;2023-12-28T11:39:43;13.05;;;8.73;;
21239;SDS011;10778;48.962;9.018;2023-12-28T11:42:10;12.80;;;8.68;;
21239;SDS011;10778;48.962;9.018;2023-12-28T11:44:37;9.77;;;6.63;;
21239;SDS011;10778;48.962;9.018;2023-12-28T11:47:12;8.00;;;5.60;;
21239;SDS011;10778;48.962;9.018;2023-12-28T11:49:42;9.77;;;6.28;;
21239;SDS011;10778;48.962;9.018;2023-12-28T11:52:27;7.70;;;4.68;;
21239;SDS011;10778;48.962;9.018;2023-12-28T11:54:54;8.27;;;3.90;;
21239;SDS011;10778;48.962;9.018;2023-12-28T11:57:21;6.63;;;4.15;;
21239;SDS011;10778;48.962;9.018;2023-12-28T11:59:57;5.15;;;3.55;;
21239;SDS011;10778;48.962;9.018;2023-12-28T12:02:24;7.72;;;3.40;;
21239;SDS011;10778;48.962;9.018;2023-12-28T12:04:50;7.82;;;3.33;;
21239;SDS011;10778;48.962;9.018;2023-12-28T12:07:17;5.68;;;3.58;;
21239;SDS011;10778;48.962;9.018;2023-12-28T12:09:43;7.53;;;4.25;;
21239;SDS011;10778;48.962;9.018;2023-12-28T12:12:09;5.03;;;3.45;;
21239;SDS011;10778;48.962;9.018;2023-12-28T12:14:35;4.22;;;3.33;;
21239;SDS011;10778;48.962;9.018;2023-12-28T12:17:01;5.57;;;2.80;;
21239;SDS011;10778;48.962;9.018;2023-12-28T12:19:29;3.30;;;2.20;;
21239;SDS011;10778;48.962;9.018;2023-12-28T12:21:56;3.35;;;2.25;;
21239;SDS011;10778;48.962;9.018;2023-12-28T12:24:22;3.60;;;2.10;;
21239;SDS011;10778;48.962;9.018;2023-12-28T12:26:49;6.18;;;2.60;;
21239;SDS011;10778;48.962;9.018;2023-12-28T12:29:15;4.20;;;2.40;;
21239;SDS011;10778;48.962;9.018;2023-12-28T12:31:41;3.38;;;2.00;;
21239;SDS011;10778;48.962;9.018;2023-12-28T12:34:10;3.85;;;2.15;;
21239;SDS011;10778;48.962;9.018;2023-12-28T12:36:36;2.83;;;1.80;;
21239;SDS011;10778;48.962;9.018;2023-12-28T12:39:03;3.05;;;1.67;;
21239;SDS011;10778;48.962;9.018;2023-12-28T12:41:33;3.35;;;1.70;;
21239;SDS011;10778;48.962;9.018;2023-12-28T12:43:59;2.40;;;1.70;;
21239;SDS011;10778;48.962;9.018;2023-12-28T12:46:26;2.40;;;1.40;;
21239;SDS011;10778;48.962;9.018;2023-12-28T12:48:59;2.53;;;1.65;;
21239;SDS011;10778;48.962;9.018;2023-12-28T12:51:28;3.25;;;1.75;;
21239;SDS011;10778;48.962;9.018;2023-12-28T12:53:57;4.22;;;1.85;;
21239;SDS011;10778;48.962;9.018;2023-12-28T12:56:26;3.92;;;2.20;;
21239;SDS011;10778;48.962;9.018;2023-12-28T12:58:56;2.20;;;1.80;;
21239;SDS011;10778;48.962;9.018;2023-12-28T13:01:23;2.28;;;1.92;;
21239;SDS011;10778;48.962;9.018;2023-12-28T13:03:49;2.42;;;1.73;;
21239;SDS011;10778;48.962;9.018;2023-12-28T13:06:16;2.45;;;1.70;;
21239;SDS011;10778;48.962;9.018;2023-12-28T13:08:42;3.60;;;2.00;;
21239;SDS011;10778;48.962;9.018;2023-12-28T13:11:08;3.70;;;2.15;;
21239;SDS011;10778;48.962;9.018;2023-12-28T13:13:34;5.30;;;2.53;;
21239;SDS011;10778;48.962;9.018;2023-12-28T13:16:04;3.92;;;2.45;;
21239;SDS011;10778;48.962;9.018;2023-12-28T13:18:30;4.07;;;2.50;;
21239;SDS011;10778;48.962;9.018;2023-12-28T13:20:56;5.40;;;2.40;;
21239;SDS011;10778;48.962;9.018;2023-12-28T13:23:22;3.97;;;2.30;;
21239;SDS011;10778;48.962;9.018;2023-12-28T13:25:48;4.13;;;2.15;;
21239;SDS011;10778;48.962;9.018;2023-12-28T13:28:13;3.58;;;2.05;;
21239;SDS011;10778;48.962;9.018;2023-12-28T13:30:39;5.53;;;2.97;;
21239;SDS011;10778;48.962;9.018;2023-12-28T13:33:06;4.22;;;2.75;;
21239;SDS011;10778;48.962;9.018;2023-12-28T13:35:32;4.13;;;2.50;;
21239;SDS011;10778;48.962;9.018;2023-12-28T13:37:59;6.13;;;2.80;;
21239;SDS011;10778;48.962;9.018;2023-12-28T13:40:27;5.90;;;4.93;;
21239;SDS011;10778;48.962;9.018;2023-12-28T13:42:54;6.32;;;5.47;;
21239;SDS011;10778;48.962;9.018;2023-12-28T13:45:20;7.18;;;4.53;;
21239;SDS011;10778;48.962;9.018;2023-12-28T13:47:45;7.57;;;4.20;;
21239;SDS011;10778;48.962;9.018;2023-12-28T13:50:11;6.25;;;3.20;;
21239;SDS011;10778;48.962;9.018;2023-12-28T13:52:37;4.78;;;3.22;;
21239;SDS011;10778;48.962;9.018;2023-12-28T13:55:03;4.70;;;3.17;;
21239;SDS011;10778;48.962;9.018;2023-12-28T13:57:29;4.25;;;3.17;;
21239;SDS011;10778;48.962;9.018;2023-12-28T13:59:55;4.30;;;3.20;;
21239;SDS011;10778;48.962;9.018;2023-12-28T14:02:26;6.40;;;3.30;;
21239;SDS011;10778;48.962;9.018;2023-12-28T14:04:52;4.95;;;3.08;;
21239;SDS011;10778;48.962;9.018;2023-12-28T14:07:20;4.28;;;2.40;;
21239;SDS011;10778;48.962;9.018;2023-12-28T14:09:46;3.83;;;2.70;;
21239;SDS011;10778;48.962;9.018;2023-12-28T14:12:12;4.75;;;2.50;;
21239;SDS011;10778;48.962;9.018;2023-12-28T14:14:38;3.70;;;2.20;;
21239;SDS011;10778;48.962;9.018;2023-12-28T14:17:04;4.80;;;2.60;;
21239;SDS011;10778;48.962;9.018;2023-12-28T14:19:30;3.67;;;2.40;;
21239;SDS011;10778;48.962;9.018;2023-12-28T14:21:58;3.55;;;2.60;;
21239;SDS011;10778;48.962;9.018;2023-12-28T14:24:24;3.50;;;2.42;;
21239;SDS011;10778;48.962;9.018;2023-12-28T14:26:52;5.97;;;3.28;;
21239;SDS011;10778;48.962;9.018;2023-12-28T14:29:20;5.82;;;2.70;;
21239;SDS011;10778;48.962;9.018;2023-12-28T14:31:49;3.42;;;2.30;;
21239;SDS011;10778;48.962;9.018;2023-12-28T14:34:16;3.70;;;2.50;;
21239;SDS011;10778;48.962;9.018;2023-12-28T14:36:43;6.45;;;3.10;;
21239;SDS011;10778;48.962;9.018;2023-12-28T14:39:15;5.75;;;3.20;;
21239;SDS011;10778;48.962;9.018;2023-12-28T14:41:44;5.60;;;3.20;;
21239;SDS011;10778;48.962;9.018;2023-12-28T14:44:10;4.55;;;2.80;;
21239;SDS011;10778;48.962;9.018;2023-12-28T14:46:36;4.03;;;2.90;;
21239;SDS011;10778;48.962;9.018;2023-12-28T14:49:02;3.47;;;2.60;;
21239;SDS011;10778;48.962;9.018;2023-12-28T14:51:29;5.55;;;3.00;;